createdAt,value
2022-10-05T00:01:28.109Z,3.33
2022-10-05T00:04:03.016Z,2.97
2022-10-05T00:08:57.615Z,2.95
2022-10-05T00:11:24.776Z,2.65
2022-10-05T00:13:52.790Z,2.65
2022-10-05T00:16:21.371Z,2.50
2022-10-05T00:18:50.562Z,3.10
2022-10-05T00:21:19.022Z,3.03
2022-10-05T00:23:46.223Z,2.75
2022-10-05T00:26:21.526Z,3.10
2022-10-05T00:28:48.955Z,3.10
2022-10-05T00:31:20.868Z,2.90
2022-10-05T00:33:48.299Z,2.60
2022-10-05T00:36:15.682Z,2.83
2022-10-05T00:38:43.061Z,2.97
2022-10-05T00:41:13.584Z,3.08
2022-10-05T00:43:49.178Z,3.35
2022-10-05T00:46:20.448Z,2.72
2022-10-05T00:48:47.624Z,3.10
2022-10-05T00:51:23.539Z,3.55
2022-10-05T00:53:50.633Z,3.00
2022-10-05T00:56:26.741Z,2.55
2022-10-05T00:58:56.699Z,3.22
2022-10-05T01:01:33.461Z,3.05
2022-10-05T01:04:06.588Z,2.78
2022-10-05T01:06:52.337Z,3.03
2022-10-05T01:09:26.593Z,3.28
2022-10-05T01:12:06.022Z,3.15
2022-10-05T01:14:56.763Z,3.20
2022-10-05T01:17:30.620Z,3.10
2022-10-05T01:20:21.017Z,3.15
2022-10-05T01:22:53.921Z,2.85
2022-10-05T01:25:27.037Z,2.50
2022-10-05T01:28:12.394Z,3.10
2022-10-05T01:31:05.554Z,2.80
2022-10-05T01:33:53.069Z,3.30
2022-10-05T01:36:32.376Z,3.58
2022-10-05T01:39:05.450Z,3.50
2022-10-05T01:41:40.915Z,4.15
2022-10-05T01:44:08.045Z,3.67
2022-10-05T01:46:46.667Z,2.78
2022-10-05T01:49:24.059Z,3.17
2022-10-05T01:52:09.304Z,3.55
2022-10-05T01:54:55.038Z,3.15
2022-10-05T01:57:28.097Z,3.03
2022-10-05T01:59:55.177Z,2.92
2022-10-05T02:02:24.224Z,3.50
2022-10-05T02:05:02.795Z,3.35
2022-10-05T02:07:34.763Z,3.40
2022-10-05T02:10:05.407Z,2.92
2022-10-05T02:12:35.362Z,3.05
2022-10-05T02:15:09.018Z,3.63
2022-10-05T02:17:39.083Z,2.95
2022-10-05T02:20:09.025Z,3.13
2022-10-05T02:22:38.081Z,3.20
2022-10-05T02:25:15.738Z,2.90
2022-10-05T02:28:03.115Z,2.80
2022-10-05T02:33:01.063Z,3.22
2022-10-05T02:35:28.349Z,2.80
2022-10-05T02:37:59.210Z,2.97
2022-10-05T02:40:31.250Z,2.90
2022-10-05T02:43:06.060Z,3.17
2022-10-05T02:45:33.239Z,3.05
2022-10-05T02:48:13.110Z,2.80
2022-10-05T02:50:43.306Z,3.10
2022-10-05T02:53:29.224Z,2.65
2022-10-05T02:56:14.796Z,2.80
2022-10-05T02:58:57.049Z,2.38
2022-10-05T03:01:36.597Z,3.00
2022-10-05T03:04:03.783Z,2.38
2022-10-05T03:06:33.503Z,2.30
2022-10-05T03:09:04.843Z,2.55
2022-10-05T03:11:50.692Z,2.40
2022-10-05T03:14:30.883Z,2.53
2022-10-05T03:17:07.155Z,2.40
2022-10-05T03:19:46.499Z,2.42
2022-10-05T03:22:22.076Z,2.47
2022-10-05T03:24:52.159Z,2.50
2022-10-05T03:27:39.730Z,2.35
2022-10-05T03:30:27.629Z,2.90
2022-10-05T03:33:11.067Z,2.35
2022-10-05T03:35:56.687Z,2.10
2022-10-05T03:38:38.164Z,2.60
2022-10-05T03:41:23.822Z,1.90
2022-10-05T03:43:57.197Z,1.88
2022-10-05T03:46:43.453Z,2.10
2022-10-05T03:49:19.510Z,2.10
2022-10-05T03:51:49.077Z,1.75
2022-10-05T03:54:20.539Z,2.60
2022-10-05T03:56:59.082Z,1.88
2022-10-05T03:59:32.211Z,2.20
2022-10-05T04:02:01.621Z,1.60
2022-10-05T04:06:56.375Z,2.08
2022-10-05T04:09:37.251Z,2.03
2022-10-05T04:12:17.827Z,2.00
2022-10-05T04:14:47.423Z,1.98
2022-10-05T04:17:21.056Z,1.95
2022-10-05T04:20:00.690Z,1.85
2022-10-05T04:22:48.084Z,2.25
2022-10-05T04:27:46.540Z,1.50
2022-10-05T04:30:15.502Z,1.95
2022-10-05T04:35:18.518Z,1.70
2022-10-05T04:37:54.843Z,1.83
2022-10-05T04:40:37.136Z,1.60
2022-10-05T04:43:04.235Z,1.73
2022-10-05T04:45:39.626Z,1.95
2022-10-05T04:48:14.982Z,1.80
2022-10-05T04:50:45.223Z,1.50
2022-10-05T04:53:23.919Z,1.80
2022-10-05T04:56:06.194Z,2.00
2022-10-05T04:58:42.642Z,1.92
2022-10-05T05:01:28.271Z,2.00
2022-10-05T05:04:10.641Z,1.60
2022-10-05T05:06:44.566Z,1.42
2022-10-05T05:09:17.852Z,2.13
2022-10-05T05:12:03.817Z,1.90
2022-10-05T05:14:39.321Z,1.73
2022-10-05T05:17:15.298Z,1.63
2022-10-05T05:19:49.437Z,1.30
2022-10-05T05:22:16.564Z,1.70
2022-10-05T05:25:04.425Z,1.40
2022-10-05T05:27:54.868Z,1.60
2022-10-05T05:30:36.618Z,1.40
2022-10-05T05:33:23.603Z,1.50
2022-10-05T05:36:15.266Z,1.23
2022-10-05T05:38:52.708Z,1.38
2022-10-05T05:41:39.316Z,1.52
2022-10-05T05:44:15.645Z,1.70
2022-10-05T05:47:05.112Z,1.63
2022-10-05T05:49:35.550Z,1.50
2022-10-05T05:52:07.172Z,1.35
2022-10-05T05:54:37.218Z,1.50
2022-10-05T05:57:19.626Z,1.33
2022-10-05T05:59:55.374Z,1.58
2022-10-05T06:02:26.309Z,1.50
2022-10-05T06:04:57.583Z,1.27
2022-10-05T06:07:30.915Z,1.65
2022-10-05T06:10:15.615Z,1.30
2022-10-05T06:12:44.056Z,1.52
2022-10-05T06:15:33.629Z,1.40
2022-10-05T06:18:03.711Z,1.70
2022-10-05T06:20:33.935Z,1.55
2022-10-05T06:23:02.563Z,1.30
2022-10-05T06:28:02.031Z,1.30
2022-10-05T06:30:45.917Z,1.70
2022-10-05T06:33:22.229Z,1.20
2022-10-05T06:35:55.174Z,1.40
2022-10-05T06:38:30.349Z,1.50
2022-10-05T06:40:57.998Z,1.23
2022-10-05T06:43:25.195Z,1.33
2022-10-05T06:45:59.256Z,1.30
2022-10-05T06:48:37.561Z,1.40
2022-10-05T06:51:10.469Z,1.30
2022-10-05T06:53:53.453Z,1.40
2022-10-05T06:56:23.538Z,1.50
2022-10-05T06:58:54.932Z,1.45
2022-10-05T07:01:32.685Z,1.20
2022-10-05T07:04:05.521Z,1.35
2022-10-05T07:06:39.220Z,1.25
2022-10-05T07:09:23.775Z,1.30
2022-10-05T07:12:09.508Z,1.50
2022-10-05T07:15:05.899Z,1.50
2022-10-05T07:17:42.472Z,1.48
2022-10-05T07:20:12.616Z,1.65
2022-10-05T07:22:45.701Z,1.42
2022-10-05T07:25:21.272Z,1.40
2022-10-05T07:27:55.764Z,1.42
2022-10-05T07:30:23.206Z,1.48
2022-10-05T07:32:50.306Z,1.13
2022-10-05T07:35:39.261Z,1.42
2022-10-05T07:38:18.010Z,1.60
2022-10-05T07:40:54.566Z,1.45
2022-10-05T07:43:51.394Z,1.23
2022-10-05T07:46:40.142Z,1.20
2022-10-05T07:49:22.771Z,1.30
2022-10-05T07:51:53.654Z,1.35
2022-10-05T07:54:25.310Z,1.20
2022-10-05T07:57:03.874Z,1.40
2022-10-05T07:59:57.374Z,1.30
2022-10-05T08:04:56.353Z,1.30
2022-10-05T08:09:59.558Z,1.25
2022-10-05T08:12:40.794Z,1.23
2022-10-05T08:17:47.594Z,1.30
2022-10-05T08:20:17.967Z,1.20
2022-10-05T08:22:48.377Z,1.38
2022-10-05T08:25:21.089Z,1.20
2022-10-05T08:27:57.308Z,1.20
2022-10-05T08:30:24.668Z,1.20
2022-10-05T08:33:03.406Z,1.40
2022-10-05T08:35:34.276Z,1.50
2022-10-05T08:38:04.408Z,1.23
2022-10-05T08:40:51.671Z,1.23
2022-10-05T08:43:34.377Z,1.30
2022-10-05T08:46:21.358Z,1.27
2022-10-05T08:48:48.568Z,1.20
2022-10-05T08:51:24.743Z,1.50
2022-10-05T08:54:10.802Z,1.42
2022-10-05T08:56:37.916Z,1.20
2022-10-05T08:59:08.035Z,1.27
2022-10-05T09:01:38.336Z,1.38
2022-10-05T09:04:15.486Z,1.23
2022-10-05T09:06:57.632Z,1.30
2022-10-05T09:09:43.364Z,1.10
2022-10-05T09:12:25.956Z,1.50
2022-10-05T09:15:24.336Z,1.40
2022-10-05T09:18:12.569Z,1.55
2022-10-05T09:20:54.507Z,1.55
2022-10-05T09:23:24.663Z,1.45
2022-10-05T09:25:54.822Z,1.35
2022-10-05T09:28:25.215Z,1.20
2022-10-05T09:30:57.695Z,1.48
2022-10-05T09:33:39.821Z,1.40
2022-10-05T09:36:24.855Z,1.40
2022-10-05T09:39:10.710Z,1.10
2022-10-05T09:41:37.930Z,1.33
2022-10-05T09:44:23.290Z,1.40
2022-10-05T09:46:55.398Z,1.33
2022-10-05T09:49:22.558Z,1.60
2022-10-05T09:51:58.890Z,1.27
2022-10-05T09:54:28.824Z,1.33
2022-10-05T09:56:55.977Z,1.48
2022-10-05T09:59:37.912Z,1.40
2022-10-05T10:02:24.502Z,1.23
2022-10-05T10:05:01.809Z,1.52
2022-10-05T10:07:48.647Z,1.95
2022-10-05T10:10:21.934Z,1.17
2022-10-05T10:13:01.487Z,1.23
2022-10-05T10:15:28.544Z,1.30
2022-10-05T10:18:01.968Z,1.52
2022-10-05T10:20:36.407Z,1.60
2022-10-05T10:23:24.228Z,1.50
2022-10-05T10:26:11.332Z,1.55
2022-10-05T10:28:50.734Z,1.50
2022-10-05T10:31:29.548Z,1.20
2022-10-05T10:34:16.468Z,1.50
2022-10-05T10:37:02.504Z,1.40
2022-10-05T10:39:29.697Z,1.38
2022-10-05T10:42:06.120Z,1.50
2022-10-05T10:44:39.394Z,1.23
2022-10-05T10:47:24.976Z,1.40
2022-10-05T10:50:10.921Z,1.25
2022-10-05T10:52:47.443Z,1.10
2022-10-05T10:55:27.106Z,1.25
2022-10-05T10:58:02.296Z,1.10
2022-10-05T11:00:40.768Z,1.33
2022-10-05T11:03:26.579Z,1.20
2022-10-05T11:06:18.729Z,1.33
2022-10-05T11:08:51.755Z,1.20
2022-10-05T11:11:27.827Z,1.10
2022-10-05T11:14:02.872Z,1.42
2022-10-05T11:19:35.022Z,1.20
2022-10-05T11:22:31.118Z,1.35
2022-10-05T11:25:17.000Z,1.35
2022-10-05T11:28:03.115Z,1.02
2022-10-05T11:30:47.531Z,1.30
2022-10-05T11:33:36.644Z,1.30
2022-10-05T11:36:22.574Z,1.08
2022-10-05T11:39:08.700Z,1.30
2022-10-05T11:41:41.356Z,1.35
2022-10-05T11:44:08.518Z,1.13
2022-10-05T11:46:41.615Z,1.30
2022-10-05T11:49:15.340Z,1.30
2022-10-05T11:51:54.752Z,1.15
2022-10-05T11:55:05.971Z,1.30
2022-10-05T11:57:29.783Z,1.25
2022-10-05T12:00:00.236Z,1.17
2022-10-05T12:02:37.823Z,1.10
2022-10-05T12:05:13.010Z,1.15
2022-10-05T12:07:46.238Z,1.00
2022-10-05T12:10:32.826Z,1.60
2022-10-05T12:13:08.831Z,1.20
2022-10-05T12:15:50.846Z,1.20
2022-10-05T12:18:24.603Z,1.20
2022-10-05T12:20:59.761Z,1.30
2022-10-05T12:23:38.601Z,1.20
2022-10-05T12:26:11.489Z,1.20
2022-10-05T12:28:41.912Z,1.42
2022-10-05T12:31:09.153Z,1.48
2022-10-05T12:33:39.137Z,1.20
2022-10-05T12:36:12.871Z,1.27
2022-10-05T12:38:58.952Z,1.25
2022-10-05T12:41:36.698Z,1.45
2022-10-05T12:44:13.403Z,1.25
2022-10-05T12:46:49.969Z,1.20
2022-10-05T12:49:35.485Z,1.30
2022-10-05T12:52:04.904Z,1.20
2022-10-05T12:54:32.065Z,1.40
2022-10-05T12:57:02.515Z,1.63
2022-10-05T12:59:36.430Z,1.27
2022-10-05T13:02:08.772Z,1.20
2022-10-05T13:04:46.822Z,1.40
2022-10-05T13:07:17.120Z,1.10
2022-10-05T13:10:04.510Z,1.40
2022-10-05T13:15:03.128Z,1.40
2022-10-05T13:17:44.611Z,1.38
2022-10-05T13:20:28.045Z,1.70
2022-10-05T13:23:14.128Z,1.60
2022-10-05T13:25:46.856Z,1.20
2022-10-05T13:28:16.711Z,2.15
2022-10-05T13:30:52.612Z,1.48
2022-10-05T13:33:28.479Z,1.40
2022-10-05T13:36:03.487Z,1.58
2022-10-05T13:41:16.625Z,1.40
2022-10-05T13:43:57.783Z,1.38
2022-10-05T13:49:08.911Z,1.63
2022-10-05T13:51:41.923Z,1.65
2022-10-05T13:54:21.522Z,1.30
2022-10-05T13:56:55.207Z,1.33
2022-10-05T13:59:22.463Z,1.30
2022-10-05T14:01:55.460Z,1.20
2022-10-05T14:04:25.005Z,1.48
2022-10-05T14:06:52.703Z,1.20
2022-10-05T14:09:22.781Z,2.17
2022-10-05T14:12:04.989Z,1.15
2022-10-05T14:14:33.857Z,1.50
2022-10-05T14:19:31.636Z,1.63
2022-10-05T14:22:12.842Z,1.65
2022-10-05T14:27:28.710Z,1.20
2022-10-05T14:30:00.618Z,1.05
2022-10-05T14:32:32.584Z,1.58
2022-10-05T14:35:15.040Z,1.30
2022-10-05T14:37:47.939Z,1.27
2022-10-05T14:40:23.817Z,1.92
2022-10-05T14:42:51.481Z,1.27
2022-10-05T14:45:20.052Z,1.20
2022-10-05T14:47:50.396Z,1.38
2022-10-05T14:50:25.399Z,1.33
2022-10-05T14:55:45.122Z,1.92
2022-10-05T14:58:12.491Z,1.35
2022-10-05T15:00:48.835Z,1.17
2022-10-05T15:03:27.408Z,1.33
2022-10-05T15:05:55.477Z,1.20
2022-10-05T15:08:36.085Z,1.13
2022-10-05T15:11:13.179Z,1.60
2022-10-05T15:13:42.597Z,1.80
2022-10-05T15:16:29.696Z,1.75
2022-10-05T15:19:04.588Z,1.30
2022-10-05T15:21:47.206Z,1.23
2022-10-05T15:24:20.961Z,1.83
2022-10-05T15:26:53.020Z,1.48
2022-10-05T15:29:20.230Z,1.90
2022-10-05T15:31:55.997Z,1.73
2022-10-05T15:34:29.437Z,1.40
2022-10-05T15:37:04.524Z,1.65
2022-10-05T15:42:01.616Z,1.10
2022-10-05T15:44:46.953Z,1.13
2022-10-05T15:47:17.967Z,1.45
2022-10-05T15:49:57.143Z,1.90
2022-10-05T15:52:27.471Z,1.33
2022-10-05T15:55:09.930Z,1.65
2022-10-05T15:57:40.251Z,1.48
2022-10-05T16:00:14.833Z,1.35
2022-10-05T16:02:45.047Z,1.45
2022-10-05T16:05:49.873Z,1.40
2022-10-05T16:08:45.772Z,1.40
2022-10-05T16:11:23.721Z,1.30
2022-10-05T16:14:10.703Z,1.20
2022-10-05T16:16:42.355Z,1.30
2022-10-05T16:19:12.675Z,1.20
2022-10-05T16:21:45.938Z,1.20
2022-10-05T16:24:25.318Z,1.15
2022-10-05T16:27:00.200Z,1.75
2022-10-05T16:29:36.216Z,1.35
2022-10-05T16:32:12.144Z,1.20
2022-10-05T16:34:46.178Z,1.35
2022-10-05T16:37:13.404Z,1.42
2022-10-05T16:39:49.700Z,1.40
2022-10-05T16:42:19.924Z,1.30
2022-10-05T16:45:06.897Z,1.60
2022-10-05T16:47:46.724Z,1.40
2022-10-05T16:50:13.807Z,1.30
2022-10-05T16:52:43.156Z,1.40
2022-10-05T16:55:14.077Z,1.30
2022-10-05T16:57:55.767Z,1.30
2022-10-05T17:00:24.136Z,1.40
2022-10-05T17:02:57.645Z,1.30
2022-10-05T17:05:34.257Z,1.60
2022-10-05T17:08:08.734Z,1.52
2022-10-05T17:10:55.687Z,1.40
2022-10-05T17:13:36.854Z,1.30
2022-10-05T17:18:51.841Z,1.40
2022-10-05T17:21:26.321Z,1.55
2022-10-05T17:24:01.829Z,1.33
2022-10-05T17:26:56.016Z,1.27
2022-10-05T17:29:26.921Z,1.55
2022-10-05T17:32:33.577Z,1.30
2022-10-05T17:35:00.867Z,1.65
2022-10-05T17:37:27.952Z,1.20
2022-10-05T17:39:56.117Z,1.35
2022-10-05T17:42:34.239Z,1.40
2022-10-05T17:45:21.360Z,1.30
2022-10-05T17:48:09.167Z,1.48
2022-10-05T17:51:00.642Z,1.38
2022-10-05T17:53:56.691Z,1.38
2022-10-05T17:56:24.304Z,1.55
2022-10-05T17:58:54.760Z,1.75
2022-10-05T18:01:30.764Z,1.58
2022-10-05T18:04:24.299Z,1.48
2022-10-05T18:09:30.916Z,1.35
2022-10-05T18:12:04.108Z,1.30
2022-10-05T18:14:51.222Z,1.15
2022-10-05T18:17:35.668Z,2.28
2022-10-05T18:20:22.391Z,1.40
2022-10-05T18:22:50.859Z,1.27
2022-10-05T18:25:34.888Z,1.48
2022-10-05T18:28:18.471Z,1.70
2022-10-05T18:31:09.796Z,1.17
2022-10-05T18:33:37.117Z,1.60
2022-10-05T18:36:08.524Z,1.55
2022-10-05T18:38:51.680Z,1.30
2022-10-05T18:41:18.811Z,1.70
2022-10-05T18:43:52.255Z,1.30
2022-10-05T18:46:38.228Z,1.40
2022-10-05T18:49:05.615Z,1.60
2022-10-05T18:51:38.985Z,1.77
2022-10-05T18:54:06.132Z,1.35
2022-10-05T18:56:41.771Z,1.50
2022-10-05T18:59:18.596Z,1.80
2022-10-05T19:01:45.768Z,1.55
2022-10-05T19:04:32.858Z,1.40
2022-10-05T19:07:08.203Z,1.42
2022-10-05T19:09:47.205Z,1.50
2022-10-05T19:12:20.165Z,2.03
2022-10-05T19:14:47.333Z,1.60
2022-10-05T19:17:32.774Z,1.75
2022-10-05T19:20:18.189Z,1.63
2022-10-05T19:23:05.218Z,1.65
2022-10-05T19:25:59.879Z,2.38
2022-10-05T19:28:29.833Z,1.60
2022-10-05T19:31:00.576Z,1.35
2022-10-05T19:33:36.959Z,1.70
2022-10-05T19:36:22.191Z,1.58
2022-10-05T19:38:55.161Z,1.50
2022-10-05T19:41:28.676Z,1.60
2022-10-05T19:44:01.823Z,1.90
2022-10-05T19:46:30.855Z,1.67
2022-10-05T19:48:58.156Z,1.75
2022-10-05T19:51:25.508Z,1.55
2022-10-05T19:53:55.909Z,1.83
2022-10-05T19:56:25.209Z,1.40
2022-10-05T19:59:00.994Z,1.60
2022-10-05T20:01:31.398Z,1.52
2022-10-05T20:03:59.047Z,1.80
2022-10-05T20:06:27.218Z,1.83
2022-10-05T20:09:00.461Z,1.40
2022-10-05T20:11:32.270Z,1.88
2022-10-05T20:14:02.392Z,1.73
2022-10-05T20:16:49.581Z,1.70
2022-10-05T20:19:55.058Z,1.90
2022-10-05T20:22:25.114Z,1.70
2022-10-05T20:24:53.650Z,2.20
2022-10-05T20:27:38.074Z,2.10
2022-10-05T20:30:06.154Z,1.55
2022-10-05T20:32:33.289Z,1.65
2022-10-05T20:35:00.700Z,1.70
2022-10-05T20:37:28.027Z,1.40
2022-10-05T20:39:55.176Z,1.67
2022-10-05T20:42:23.813Z,1.60
2022-10-05T20:44:56.460Z,1.80
2022-10-05T20:47:24.296Z,1.40
2022-10-05T20:49:53.366Z,1.95
2022-10-05T20:52:20.818Z,1.30
2022-10-05T20:54:48.061Z,1.88
2022-10-05T20:57:15.203Z,1.38
2022-10-05T20:59:42.497Z,1.40
2022-10-05T21:02:10.507Z,1.27
2022-10-05T21:04:41.883Z,1.60
2022-10-05T21:07:09.511Z,1.33
2022-10-05T21:09:38.458Z,1.45
2022-10-05T21:12:05.916Z,1.15
2022-10-05T21:14:34.481Z,1.40
2022-10-05T21:17:02.150Z,1.50
2022-10-05T21:19:29.721Z,1.48
2022-10-05T21:21:59.158Z,1.10
2022-10-05T21:24:26.400Z,1.30
2022-10-05T21:26:57.361Z,1.10
2022-10-05T21:29:24.656Z,1.23
2022-10-05T21:31:51.966Z,1.00
2022-10-05T21:34:19.188Z,1.40
2022-10-05T21:36:46.271Z,1.02
2022-10-05T21:39:13.765Z,1.10
2022-10-05T21:41:50.237Z,1.10
2022-10-05T21:44:18.205Z,1.10
2022-10-05T21:46:45.451Z,0.90
2022-10-05T21:49:16.187Z,1.05
2022-10-05T21:51:47.240Z,1.02
2022-10-05T21:54:19.799Z,0.80
2022-10-05T21:56:48.772Z,1.00
2022-10-05T21:59:17.912Z,0.90
2022-10-05T22:01:45.195Z,1.13
2022-10-05T22:04:12.365Z,0.90
2022-10-05T22:06:40.360Z,0.90
2022-10-05T22:09:07.552Z,1.50
2022-10-05T22:11:37.043Z,1.10
2022-10-05T22:14:04.152Z,1.10
2022-10-05T22:16:33.187Z,1.10
2022-10-05T22:19:03.926Z,0.93
2022-10-05T22:21:32.795Z,0.90
2022-10-05T22:24:02.792Z,1.02
2022-10-05T22:26:30.525Z,1.10
2022-10-05T22:28:57.740Z,1.00
2022-10-05T22:31:25.310Z,1.00
2022-10-05T22:33:52.848Z,1.00
2022-10-05T22:36:20.514Z,1.05
2022-10-05T22:38:47.794Z,0.82
2022-10-05T22:41:18.190Z,1.05
2022-10-05T22:43:48.726Z,0.80
2022-10-05T22:46:16.349Z,0.93
2022-10-05T22:48:43.651Z,0.90
2022-10-05T22:51:10.881Z,0.93
2022-10-05T22:53:38.267Z,0.82
2022-10-05T22:56:08.751Z,1.15
2022-10-05T22:58:36.055Z,1.20
2022-10-05T23:01:07.635Z,0.90
2022-10-05T23:03:34.856Z,1.30
2022-10-05T23:06:22.359Z,0.90
2022-10-05T23:08:49.477Z,0.75
2022-10-05T23:11:17.953Z,1.13
2022-10-05T23:13:45.416Z,1.08
2022-10-05T23:16:16.533Z,1.00
2022-10-05T23:18:44.668Z,1.08
2022-10-05T23:21:12.007Z,0.85
2022-10-05T23:23:40.050Z,1.17
2022-10-05T23:26:08.006Z,1.00
2022-10-05T23:28:35.274Z,1.00
2022-10-05T23:31:04.796Z,1.02
2022-10-05T23:33:32.257Z,1.10
2022-10-05T23:35:59.507Z,0.95
2022-10-05T23:38:27.333Z,1.27
2022-10-05T23:40:55.369Z,0.98
2022-10-05T23:43:23.210Z,1.33
2022-10-05T23:45:50.386Z,2.25
2022-10-05T23:48:17.587Z,0.90
2022-10-05T23:50:48.165Z,1.73
2022-10-05T23:53:15.875Z,0.90
2022-10-05T23:55:43.280Z,0.80
2022-10-05T23:58:10.447Z,1.20
